createdAt,value
2022-11-25T00:00:31.127Z,1.80
2022-11-25T00:05:33.870Z,1.48
2022-11-25T00:10:37.976Z,1.70
2022-11-25T00:15:40.743Z,1.60
2022-11-25T00:20:43.489Z,2.20
2022-11-25T00:25:47.571Z,1.80
2022-11-25T00:30:50.333Z,1.42
2022-11-25T00:35:53.078Z,1.73
2022-11-25T00:41:17.718Z,1.50
2022-11-25T00:46:20.513Z,1.23
2022-11-25T00:51:23.220Z,1.73
2022-11-25T00:56:27.362Z,1.70
2022-11-25T01:01:30.244Z,1.60
2022-11-25T01:06:33.106Z,1.40
2022-11-25T01:11:37.157Z,1.60
2022-11-25T01:16:39.974Z,2.05
2022-11-25T01:21:43.549Z,1.42
2022-11-25T01:26:48.868Z,2.00
2022-11-25T01:31:51.815Z,1.65
2022-11-25T01:36:56.165Z,1.88
2022-11-25T01:42:01.288Z,1.77
2022-11-25T01:47:07.097Z,1.55
2022-11-25T01:52:13.693Z,2.08
2022-11-25T01:57:21.658Z,1.33
2022-11-25T02:02:24.852Z,1.60
2022-11-25T02:07:32.571Z,1.73
2022-11-25T02:12:38.516Z,1.73
2022-11-25T02:17:41.394Z,2.05
2022-11-25T02:22:56.302Z,1.85
2022-11-25T02:28:04.295Z,2.25
2022-11-25T02:33:07.438Z,1.95
2022-11-25T02:38:13.364Z,1.60
2022-11-25T02:43:17.896Z,1.95
2022-11-25T02:48:30.198Z,1.65
2022-11-25T02:53:44.159Z,1.58
2022-11-25T02:58:48.240Z,1.90
2022-11-25T03:03:50.974Z,1.70
2022-11-25T03:08:53.827Z,1.60
2022-11-25T03:13:57.913Z,2.10
2022-11-25T03:19:00.946Z,2.13
2022-11-25T03:24:03.903Z,1.70
2022-11-25T03:29:07.963Z,1.85
2022-11-25T03:34:11.305Z,1.80
2022-11-25T03:39:14.012Z,1.60
2022-11-25T03:44:19.167Z,1.75
2022-11-25T03:49:22.242Z,2.17
2022-11-25T03:54:25.219Z,2.30
2022-11-25T03:59:52.272Z,1.90
2022-11-25T04:04:55.123Z,2.92
2022-11-25T04:09:58.933Z,1.88
2022-11-25T04:15:07.741Z,1.83
2022-11-25T04:20:11.837Z,2.05
2022-11-25T04:25:16.336Z,2.03
2022-11-25T04:30:20.780Z,2.50
2022-11-25T04:35:24.297Z,1.95
2022-11-25T04:40:30.103Z,2.05
2022-11-25T04:46:12.938Z,2.17
2022-11-25T04:51:12.334Z,1.77
2022-11-25T04:56:18.580Z,1.95
2022-11-25T05:01:23.537Z,2.00
2022-11-25T05:06:30.044Z,2.50
2022-11-25T05:11:32.868Z,1.90
2022-11-25T05:16:37.421Z,1.98
2022-11-25T05:21:40.577Z,2.28
2022-11-25T05:26:43.611Z,1.80
2022-11-25T05:31:48.299Z,2.35
2022-11-25T05:36:52.060Z,1.80
2022-11-25T05:41:55.375Z,2.45
2022-11-25T05:46:59.766Z,2.08
2022-11-25T05:52:03.208Z,2.20
2022-11-25T05:57:10.748Z,5.95
2022-11-25T06:02:23.318Z,2.63
2022-11-25T06:07:27.304Z,2.10
2022-11-25T06:12:30.610Z,1.90
2022-11-25T06:17:35.678Z,2.22
2022-11-25T06:22:44.655Z,2.75
2022-11-25T06:28:11.429Z,2.47
2022-11-25T06:33:12.783Z,2.77
2022-11-25T06:38:19.251Z,2.60
2022-11-25T06:43:21.955Z,1.83
2022-11-25T06:48:26.066Z,2.30
2022-11-25T06:53:29.015Z,2.20
2022-11-25T06:58:36.391Z,2.80
2022-11-25T07:03:40.930Z,3.20
2022-11-25T07:08:44.335Z,2.83
2022-11-25T07:13:47.288Z,3.85
2022-11-25T07:18:51.856Z,3.70
2022-11-25T07:23:54.889Z,2.78
2022-11-25T07:29:00.601Z,2.92
2022-11-25T07:34:06.788Z,2.97
2022-11-25T07:39:13.348Z,1.98
2022-11-25T07:44:16.178Z,2.42
2022-11-25T07:49:37.080Z,2.92
2022-11-25T07:54:39.937Z,2.85
2022-11-25T07:59:42.632Z,2.28
2022-11-25T08:04:46.928Z,2.85
2022-11-25T08:09:51.369Z,3.15
2022-11-25T08:14:54.066Z,2.75
2022-11-25T08:19:58.141Z,3.03
2022-11-25T08:25:00.886Z,2.60
2022-11-25T08:30:03.614Z,3.45
2022-11-25T08:35:08.865Z,3.88
2022-11-25T08:40:12.217Z,3.03
2022-11-25T08:45:15.035Z,3.65
2022-11-25T08:50:19.506Z,3.70
2022-11-25T08:55:22.490Z,3.88
2022-11-25T09:00:25.669Z,3.70
2022-11-25T09:05:35.850Z,3.28
2022-11-25T09:10:40.254Z,2.85
2022-11-25T09:15:43.097Z,2.38
2022-11-25T09:20:48.304Z,2.88
2022-11-25T09:25:54.601Z,2.25
2022-11-25T09:30:57.389Z,2.63
2022-11-25T09:36:02.606Z,3.10
2022-11-25T09:41:09.716Z,2.05
2022-11-25T09:46:33.644Z,2.35
2022-11-25T09:51:43.120Z,1.80
2022-11-25T09:56:49.349Z,3.25
2022-11-25T10:01:55.750Z,1.55
2022-11-25T10:07:03.094Z,1.20
2022-11-25T10:12:08.187Z,1.83
2022-11-25T10:17:18.437Z,1.90
2022-11-25T10:22:25.850Z,1.73
2022-11-25T10:27:32.383Z,1.92
2022-11-25T10:32:41.988Z,1.63
2022-11-25T10:37:47.022Z,2.35
2022-11-25T10:42:49.879Z,1.60
2022-11-25T10:48:09.201Z,1.65
2022-11-25T10:53:17.131Z,1.73
2022-11-25T10:58:29.064Z,1.77
2022-11-25T11:03:31.882Z,1.70
2022-11-25T11:08:40.834Z,1.90
2022-11-25T11:13:44.069Z,1.80
2022-11-25T11:18:46.884Z,1.15
2022-11-25T11:23:52.968Z,1.63
2022-11-25T11:29:01.434Z,1.60
2022-11-25T11:34:14.775Z,1.60
2022-11-25T11:39:45.833Z,1.50
2022-11-25T11:45:00.317Z,1.40
2022-11-25T11:50:21.968Z,1.30
2022-11-25T11:55:37.763Z,1.27
2022-11-25T12:00:47.028Z,1.30
2022-11-25T12:05:53.973Z,1.23
2022-11-25T12:11:00.961Z,1.65
2022-11-25T12:16:10.198Z,1.50
2022-11-25T12:21:23.449Z,1.10
2022-11-25T12:26:31.293Z,1.30
2022-11-25T12:31:39.016Z,1.70
2022-11-25T12:36:44.228Z,1.20
2022-11-25T12:41:53.187Z,1.13
2022-11-25T12:46:57.411Z,1.20
2022-11-25T12:52:21.909Z,1.13
2022-11-25T12:57:49.427Z,1.70
2022-11-25T13:03:13.750Z,1.10
2022-11-25T13:08:29.235Z,1.33
2022-11-25T13:13:39.841Z,1.65
2022-11-25T13:18:44.679Z,1.30
2022-11-25T13:23:50.142Z,1.40
2022-11-25T13:28:54.283Z,1.50
2022-11-25T13:34:08.399Z,1.65
2022-11-25T13:39:15.812Z,1.20
2022-11-25T13:44:27.952Z,1.50
2022-11-25T13:49:37.035Z,2.05
2022-11-25T13:54:44.780Z,2.20
2022-11-25T13:59:56.883Z,1.70
2022-11-25T14:05:05.582Z,1.92
2022-11-25T14:10:24.231Z,1.77
2022-11-25T14:15:33.860Z,1.42
2022-11-25T14:20:41.074Z,1.50
2022-11-25T14:25:47.907Z,1.33
2022-11-25T14:30:54.730Z,1.50
2022-11-25T14:36:02.745Z,1.20
2022-11-25T14:41:09.498Z,1.23
2022-11-25T14:46:15.910Z,2.05
2022-11-25T14:51:18.931Z,1.60
2022-11-25T14:56:28.455Z,1.75
2022-11-25T15:01:34.158Z,1.40
2022-11-25T15:06:39.138Z,1.98
2022-11-25T15:11:41.930Z,1.75
2022-11-25T15:16:46.208Z,1.83
2022-11-25T15:22:22.011Z,2.40
2022-11-25T15:27:21.085Z,1.95
2022-11-25T15:32:26.659Z,1.77
2022-11-25T15:37:29.949Z,1.33
2022-11-25T15:42:33.684Z,1.67
2022-11-25T15:47:37.850Z,1.40
2022-11-25T15:52:41.322Z,1.67
2022-11-25T15:57:45.500Z,1.70
2022-11-25T16:02:54.457Z,1.33
2022-11-25T16:08:20.957Z,1.50
2022-11-25T16:13:33.257Z,1.45
2022-11-25T16:18:41.238Z,1.80
2022-11-25T16:23:46.614Z,2.20
2022-11-25T16:28:54.622Z,2.10
2022-11-25T16:34:02.757Z,1.98
2022-11-25T16:39:05.502Z,2.30
2022-11-25T16:44:15.165Z,2.25
2022-11-25T16:49:20.428Z,1.90
2022-11-25T16:54:24.151Z,1.90
2022-11-25T16:59:30.789Z,1.88
2022-11-25T17:04:34.895Z,1.75
2022-11-25T17:09:37.988Z,2.10
2022-11-25T17:14:41.034Z,2.42
2022-11-25T17:19:45.355Z,2.00
2022-11-25T17:24:48.302Z,1.98
2022-11-25T17:29:52.054Z,2.00
2022-11-25T17:34:56.256Z,1.73
2022-11-25T17:39:59.138Z,2.75
2022-11-25T17:45:02.072Z,2.28
2022-11-25T17:50:15.926Z,1.90
2022-11-25T17:55:19.704Z,2.05
2022-11-25T18:00:23.278Z,2.38
2022-11-25T18:05:28.442Z,1.98
2022-11-25T18:10:31.360Z,2.15
2022-11-25T18:15:35.022Z,2.97
2022-11-25T18:20:39.126Z,2.25
2022-11-25T18:25:42.062Z,2.05
2022-11-25T18:30:44.904Z,2.45
2022-11-25T18:35:49.278Z,2.88
2022-11-25T18:40:54.072Z,2.78
2022-11-25T18:45:57.243Z,2.55
2022-11-25T18:51:01.496Z,2.40
2022-11-25T18:56:04.356Z,2.63
2022-11-25T19:01:13.191Z,2.80
2022-11-25T19:06:17.469Z,2.72
2022-11-25T19:11:27.003Z,2.88
2022-11-25T19:16:29.798Z,2.50
2022-11-25T19:21:34.743Z,2.75
2022-11-25T19:26:42.250Z,3.08
2022-11-25T19:31:45.316Z,2.95
2022-11-25T19:36:49.449Z,3.20
2022-11-25T19:41:52.566Z,3.08
2022-11-25T19:52:21.508Z,3.10
2022-11-25T19:57:25.465Z,3.10
2022-11-25T20:02:28.244Z,2.97
2022-11-25T20:07:32.504Z,3.20
2022-11-25T20:12:35.312Z,3.05
2022-11-25T20:17:39.384Z,3.42
2022-11-25T20:22:48.893Z,3.08
2022-11-25T20:27:51.618Z,3.33
2022-11-25T20:32:54.426Z,3.53
2022-11-25T20:38:00.510Z,3.53
2022-11-25T20:43:03.555Z,3.58
2022-11-25T20:48:10.682Z,3.53
2022-11-25T20:53:16.040Z,3.70
2022-11-25T20:58:21.938Z,3.70
2022-11-25T21:03:24.780Z,3.50
2022-11-25T21:08:31.466Z,3.95
2022-11-25T21:13:34.332Z,3.15
2022-11-25T21:18:37.137Z,3.85
2022-11-25T21:23:41.651Z,4.22
2022-11-25T21:28:45.776Z,4.45
2022-11-25T21:33:49.087Z,3.80
2022-11-25T21:38:55.553Z,4.50
2022-11-25T21:43:58.645Z,4.13
2022-11-25T21:49:01.652Z,4.10
2022-11-25T21:54:05.930Z,3.85
2022-11-25T21:59:09.041Z,3.60
2022-11-25T22:04:14.943Z,3.97
2022-11-25T22:09:19.109Z,3.53
2022-11-25T22:14:28.652Z,4.45
2022-11-25T22:19:31.506Z,4.18
2022-11-25T22:24:36.106Z,4.10
2022-11-25T22:29:39.330Z,3.88
2022-11-25T22:34:42.264Z,4.85
2022-11-25T22:39:46.703Z,4.10
2022-11-25T22:44:50.520Z,4.65
2022-11-25T22:49:53.948Z,4.68
2022-11-25T22:54:59.628Z,4.38
2022-11-25T23:00:02.618Z,4.65
2022-11-25T23:05:15.475Z,4.90
2022-11-25T23:10:21.947Z,4.88
2022-11-25T23:15:25.411Z,4.80
2022-11-25T23:20:30.751Z,5.07
2022-11-25T23:25:34.995Z,5.68
2022-11-25T23:30:37.932Z,5.30
2022-11-25T23:35:40.994Z,5.05
2022-11-25T23:40:45.136Z,5.15
2022-11-25T23:45:50.727Z,5.00
2022-11-25T23:50:55.031Z,4.78
2022-11-25T23:55:59.383Z,4.53
